메인 페이지
METAR-TAF:

METAR-TAF

공항 :

탐페레, 핀란드

위도: 61-25N, 경도: 023-35E, 고도: 112m

현재 날씨관측

예보는 13분 전, 06:50시(UTC)에 발표되었습니다.
북서4kt서북서풍과 풍을 오가는
온도 17°C
습도 94%
기압 1010 hPa
시정 10km 이상
고도 600ft 상공 구름 많음
고도 2400ft 상공 구름 많음

METAR: EFTP 190650Z AUTO 32004KT 290V360 9999 BKN006 BKN024 17/16 Q1010

시각: 10:03 (07:03 UTC)

예보

예보는 1 시간 26분 전, 05:37시(UTC)에 발표되었습니다.
예보 대상 시간: 19일 06시부터 20일 06시까지 (UTC)
북서8kt
시정 10km 이상
고도 500ft 상공 구름 많음
일시적
19일 06시부터 19일 08시까지 (UTC)
시정: 6000m
고도 400ft 상공 구름 보통
고도 1500ft 상공 구름 많음, 적란운.
소나기
전환 중
19일 08시부터 19일 10시까지 (UTC)
고도 1300ft 상공 구름 보통
고도 2000ft 상공 구름 보통, 적란운.
일시적
19일 10시부터 19일 21시까지 (UTC)
시정: 6000m
뇌우, 비
확률 40% :
일시적
19일 12시부터 19일 20시까지 (UTC)
시정: 4000m
뇌우, 강한비
일시적
19일 21시부터 20일 06시까지 (UTC)
시정: 5000m
고도 500ft 상공 구름 많음
고도 2000ft 상공 구름 조금, 적란운.
박무,

TAF: EFTP 190537Z 1906/2006 31008KT 9999 BKN005 TEMPO 1906/1908 6000 SHRA SCT004 BKN015CB BECMG 1908/1910 SCT013 SCT020CB TEMPO 1910/1921 6000 TSRA PROB40 TEMPO 1912/1920 4000 +TSRA TEMPO 1921/2006 5000 BR BKN005 FEW020CB

4,000개 이상의 공항 관측 자료 및 예보 (METAR 및 TAF 보고).

지도상에서 검색 가능한 기상관측소가 노란 점과 빨간 점으로 표시되어 있습니다.

기상관측소 명을 보려면 표시 위로 마우스를 이동하세요.

날씨 관측과 예보를 보려면 클릭하세요.

지도 변경 : 확대하려면 엑스 표시가 있는 녹색 버튼, 축소하려면 빼기 표시가 있는 녹색 버튼, 다음 페이지의 지도를 보려면 녹색 화살표를 클릭하세요.


METAR-TAF: